sensor_id;sensor_type;location;lat;lon;timestamp;P1;durP1;ratioP1;P2;durP2;ratioP2
46755;SDS011;32506;52.826;-1.192;2023-01-15T00:01:00;7.47;;;1.30;;
46755;SDS011;32506;52.826;-1.192;2023-01-15T00:03:26;8.10;;;2.55;;
46755;SDS011;32506;52.826;-1.192;2023-01-15T00:05:52;5.15;;;0.70;;
46755;SDS011;32506;52.826;-1.192;2023-01-15T00:08:18;4.43;;;0.82;;
46755;SDS011;32506;52.826;-1.192;2023-01-15T00:10:44;4.35;;;1.02;;
46755;SDS011;32506;52.826;-1.192;2023-01-15T00:13:09;5.63;;;1.08;;
46755;SDS011;32506;52.826;-1.192;2023-01-15T00:15:35;5.18;;;0.93;;
46755;SDS011;32506;52.826;-1.192;2023-01-15T00:18:01;8.40;;;0.93;;
46755;SDS011;32506;52.826;-1.192;2023-01-15T00:20:26;5.60;;;0.82;;
46755;SDS011;32506;52.826;-1.192;2023-01-15T00:22:52;4.43;;;0.82;;
46755;SDS011;32506;52.826;-1.192;2023-01-15T00:25:18;7.72;;;1.58;;
46755;SDS011;32506;52.826;-1.192;2023-01-15T00:28:02;11.57;;;2.92;;
46755;SDS011;32506;52.826;-1.192;2023-01-15T00:30:27;8.98;;;1.17;;
46755;SDS011;32506;52.826;-1.192;2023-01-15T00:32:53;5.78;;;1.13;;
46755;SDS011;32506;52.826;-1.192;2023-01-15T00:35:20;8.48;;;1.20;;
46755;SDS011;32506;52.826;-1.192;2023-01-15T00:37:47;5.30;;;0.98;;
46755;SDS011;32506;52.826;-1.192;2023-01-15T00:40:13;3.90;;;0.90;;
46755;SDS011;32506;52.826;-1.192;2023-01-15T00:42:40;3.90;;;1.00;;
46755;SDS011;32506;52.826;-1.192;2023-01-15T00:45:06;6.53;;;0.80;;
46755;SDS011;32506;52.826;-1.192;2023-01-15T00:47:37;4.85;;;0.80;;
46755;SDS011;32506;52.826;-1.192;2023-01-15T00:50:04;5.35;;;0.70;;
46755;SDS011;32506;52.826;-1.192;2023-01-15T00:52:31;6.50;;;1.20;;
46755;SDS011;32506;52.826;-1.192;2023-01-15T00:54:57;5.00;;;0.85;;
46755;SDS011;32506;52.826;-1.192;2023-01-15T00:57:23;4.63;;;0.70;;
46755;SDS011;32506;52.826;-1.192;2023-01-15T00:59:48;5.35;;;1.05;;
46755;SDS011;32506;52.826;-1.192;2023-01-15T01:02:14;8.25;;;1.42;;
46755;SDS011;32506;52.826;-1.192;2023-01-15T01:04:39;7.50;;;0.75;;
46755;SDS011;32506;52.826;-1.192;2023-01-15T01:07:05;5.35;;;0.80;;
46755;SDS011;32506;52.826;-1.192;2023-01-15T01:09:30;7.03;;;1.33;;
46755;SDS011;32506;52.826;-1.192;2023-01-15T01:11:56;4.85;;;1.23;;
46755;SDS011;32506;52.826;-1.192;2023-01-15T01:14:21;3.22;;;0.85;;
46755;SDS011;32506;52.826;-1.192;2023-01-15T01:16:47;8.18;;;1.10;;
46755;SDS011;32506;52.826;-1.192;2023-01-15T01:19:17;6.50;;;1.20;;
46755;SDS011;32506;52.826;-1.192;2023-01-15T01:21:45;5.05;;;0.80;;
46755;SDS011;32506;52.826;-1.192;2023-01-15T01:24:13;6.97;;;1.60;;
46755;SDS011;32506;52.826;-1.192;2023-01-15T01:26:40;5.45;;;0.88;;
46755;SDS011;32506;52.826;-1.192;2023-01-15T01:29:10;6.03;;;1.02;;
46755;SDS011;32506;52.826;-1.192;2023-01-15T01:31:46;5.95;;;1.45;;
46755;SDS011;32506;52.826;-1.192;2023-01-15T01:34:12;5.57;;;0.90;;
46755;SDS011;32506;52.826;-1.192;2023-01-15T01:36:39;7.95;;;1.20;;
46755;SDS011;32506;52.826;-1.192;2023-01-15T01:39:07;6.55;;;0.85;;
46755;SDS011;32506;52.826;-1.192;2023-01-15T01:41:38;6.07;;;0.90;;
46755;SDS011;32506;52.826;-1.192;2023-01-15T01:47:06;4.15;;;1.10;;
46755;SDS011;32506;52.826;-1.192;2023-01-15T01:52:05;6.57;;;1.38;;
46755;SDS011;32506;52.826;-1.192;2023-01-15T01:54:35;4.07;;;0.60;;
46755;SDS011;32506;52.826;-1.192;2023-01-15T01:57:02;3.38;;;0.73;;
46755;SDS011;32506;52.826;-1.192;2023-01-15T01:59:29;5.07;;;1.10;;
46755;SDS011;32506;52.826;-1.192;2023-01-15T02:01:55;5.65;;;0.70;;
46755;SDS011;32506;52.826;-1.192;2023-01-15T02:04:21;9.70;;;1.67;;
46755;SDS011;32506;52.826;-1.192;2023-01-15T02:06:49;6.35;;;0.75;;
46755;SDS011;32506;52.826;-1.192;2023-01-15T02:09:16;6.72;;;1.33;;
46755;SDS011;32506;52.826;-1.192;2023-01-15T02:11:41;5.22;;;0.88;;
46755;SDS011;32506;52.826;-1.192;2023-01-15T02:14:20;5.85;;;0.82;;
46755;SDS011;32506;52.826;-1.192;2023-01-15T02:16:56;4.95;;;1.10;;
46755;SDS011;32506;52.826;-1.192;2023-01-15T02:25:32;5.18;;;1.08;;
46755;SDS011;32506;52.826;-1.192;2023-01-15T02:28:11;6.00;;;1.23;;
46755;SDS011;32506;52.826;-1.192;2023-01-15T02:30:45;3.13;;;0.63;;
46755;SDS011;32506;52.826;-1.192;2023-01-15T02:33:15;4.13;;;1.38;;
46755;SDS011;32506;52.826;-1.192;2023-01-15T02:35:46;4.25;;;0.77;;
46755;SDS011;32506;52.826;-1.192;2023-01-15T02:38:27;3.53;;;0.70;;
46755;SDS011;32506;52.826;-1.192;2023-01-15T02:40:58;4.82;;;0.65;;
46755;SDS011;32506;52.826;-1.192;2023-01-15T02:43:26;10.13;;;1.30;;
46755;SDS011;32506;52.826;-1.192;2023-01-15T02:45:57;4.55;;;0.88;;
46755;SDS011;32506;52.826;-1.192;2023-01-15T02:48:27;1.42;;;0.55;;
46755;SDS011;32506;52.826;-1.192;2023-01-15T02:51:18;5.32;;;1.10;;
46755;SDS011;32506;52.826;-1.192;2023-01-15T02:53:45;6.03;;;0.52;;
46755;SDS011;32506;52.826;-1.192;2023-01-15T02:56:14;3.03;;;0.45;;
46755;SDS011;32506;52.826;-1.192;2023-01-15T02:58:42;5.88;;;0.52;;
46755;SDS011;32506;52.826;-1.192;2023-01-15T03:01:16;4.25;;;0.70;;
46755;SDS011;32506;52.826;-1.192;2023-01-15T03:04:04;4.97;;;0.68;;
46755;SDS011;32506;52.826;-1.192;2023-01-15T03:06:50;4.15;;;0.80;;
46755;SDS011;32506;52.826;-1.192;2023-01-15T03:09:20;7.88;;;0.95;;
46755;SDS011;32506;52.826;-1.192;2023-01-15T03:12:02;4.70;;;1.75;;
46755;SDS011;32506;52.826;-1.192;2023-01-15T03:15:05;3.33;;;0.70;;
46755;SDS011;32506;52.826;-1.192;2023-01-15T03:17:35;4.13;;;1.60;;
46755;SDS011;32506;52.826;-1.192;2023-01-15T03:20:26;5.68;;;0.70;;
46755;SDS011;32506;52.826;-1.192;2023-01-15T03:22:55;1.73;;;0.63;;
46755;SDS011;32506;52.826;-1.192;2023-01-15T03:25:28;6.90;;;1.08;;
46755;SDS011;32506;52.826;-1.192;2023-01-15T03:30:25;4.15;;;0.63;;
46755;SDS011;32506;52.826;-1.192;2023-01-15T03:32:52;7.57;;;0.90;;
46755;SDS011;32506;52.826;-1.192;2023-01-15T03:38:07;1.45;;;0.63;;
46755;SDS011;32506;52.826;-1.192;2023-01-15T03:40:34;4.07;;;0.98;;
46755;SDS011;32506;52.826;-1.192;2023-01-15T03:43:05;3.88;;;0.95;;
46755;SDS011;32506;52.826;-1.192;2023-01-15T03:45:57;2.17;;;0.55;;
46755;SDS011;32506;52.826;-1.192;2023-01-15T03:48:38;5.43;;;0.70;;
46755;SDS011;32506;52.826;-1.192;2023-01-15T03:51:11;3.50;;;0.52;;
46755;SDS011;32506;52.826;-1.192;2023-01-15T03:53:42;4.00;;;0.63;;
46755;SDS011;32506;52.826;-1.192;2023-01-15T03:59:12;2.60;;;0.50;;
46755;SDS011;32506;52.826;-1.192;2023-01-15T04:01:45;5.28;;;0.70;;
46755;SDS011;32506;52.826;-1.192;2023-01-15T04:04:13;3.60;;;0.50;;
46755;SDS011;32506;52.826;-1.192;2023-01-15T04:06:40;5.32;;;1.02;;
46755;SDS011;32506;52.826;-1.192;2023-01-15T04:09:07;3.97;;;0.70;;
46755;SDS011;32506;52.826;-1.192;2023-01-15T04:11:36;4.82;;;0.60;;
46755;SDS011;32506;52.826;-1.192;2023-01-15T04:14:01;3.17;;;0.45;;
46755;SDS011;32506;52.826;-1.192;2023-01-15T04:16:29;4.68;;;0.68;;
46755;SDS011;32506;52.826;-1.192;2023-01-15T04:18:56;6.57;;;0.82;;
46755;SDS011;32506;52.826;-1.192;2023-01-15T04:21:22;5.22;;;0.90;;
46755;SDS011;32506;52.826;-1.192;2023-01-15T04:23:47;5.13;;;0.80;;
46755;SDS011;32506;52.826;-1.192;2023-01-15T04:26:13;5.82;;;0.60;;
46755;SDS011;32506;52.826;-1.192;2023-01-15T04:28:39;5.00;;;0.98;;
46755;SDS011;32506;52.826;-1.192;2023-01-15T04:31:05;5.35;;;0.80;;
46755;SDS011;32506;52.826;-1.192;2023-01-15T04:33:31;3.80;;;0.70;;
46755;SDS011;32506;52.826;-1.192;2023-01-15T04:36:00;4.75;;;0.68;;
46755;SDS011;32506;52.826;-1.192;2023-01-15T04:38:27;2.95;;;0.55;;
46755;SDS011;32506;52.826;-1.192;2023-01-15T04:40:52;4.82;;;0.65;;
46755;SDS011;32506;52.826;-1.192;2023-01-15T04:43:36;4.57;;;0.68;;
46755;SDS011;32506;52.826;-1.192;2023-01-15T04:46:21;6.70;;;0.50;;
46755;SDS011;32506;52.826;-1.192;2023-01-15T04:48:47;6.40;;;1.52;;
46755;SDS011;32506;52.826;-1.192;2023-01-15T04:51:13;5.32;;;1.00;;
46755;SDS011;32506;52.826;-1.192;2023-01-15T04:53:38;5.22;;;0.77;;
46755;SDS011;32506;52.826;-1.192;2023-01-15T04:56:04;3.78;;;0.60;;
46755;SDS011;32506;52.826;-1.192;2023-01-15T04:58:30;5.80;;;0.88;;
46755;SDS011;32506;52.826;-1.192;2023-01-15T05:00:57;3.92;;;0.85;;
46755;SDS011;32506;52.826;-1.192;2023-01-15T05:03:28;6.57;;;1.23;;
46755;SDS011;32506;52.826;-1.192;2023-01-15T05:05:54;3.25;;;0.73;;
46755;SDS011;32506;52.826;-1.192;2023-01-15T05:08:19;7.88;;;1.38;;
46755;SDS011;32506;52.826;-1.192;2023-01-15T05:10:45;4.13;;;1.10;;
46755;SDS011;32506;52.826;-1.192;2023-01-15T05:13:11;3.13;;;0.80;;
46755;SDS011;32506;52.826;-1.192;2023-01-15T05:15:36;5.55;;;0.93;;
46755;SDS011;32506;52.826;-1.192;2023-01-15T05:18:04;3.03;;;0.63;;
46755;SDS011;32506;52.826;-1.192;2023-01-15T05:20:30;4.22;;;1.92;;
46755;SDS011;32506;52.826;-1.192;2023-01-15T05:22:56;5.13;;;0.63;;
46755;SDS011;32506;52.826;-1.192;2023-01-15T05:25:21;4.22;;;0.60;;
46755;SDS011;32506;52.826;-1.192;2023-01-15T05:27:47;1.67;;;0.30;;
46755;SDS011;32506;52.826;-1.192;2023-01-15T05:30:13;5.07;;;0.90;;
46755;SDS011;32506;52.826;-1.192;2023-01-15T05:32:38;2.28;;;0.47;;
46755;SDS011;32506;52.826;-1.192;2023-01-15T05:35:04;3.58;;;0.60;;
46755;SDS011;32506;52.826;-1.192;2023-01-15T05:37:30;3.40;;;0.50;;
46755;SDS011;32506;52.826;-1.192;2023-01-15T05:39:56;5.28;;;0.70;;
46755;SDS011;32506;52.826;-1.192;2023-01-15T05:42:21;3.13;;;0.60;;
46755;SDS011;32506;52.826;-1.192;2023-01-15T05:44:47;8.48;;;0.95;;
46755;SDS011;32506;52.826;-1.192;2023-01-15T05:47:13;4.45;;;0.55;;
46755;SDS011;32506;52.826;-1.192;2023-01-15T05:49:39;5.50;;;1.00;;
46755;SDS011;32506;52.826;-1.192;2023-01-15T05:52:04;4.32;;;0.50;;
46755;SDS011;32506;52.826;-1.192;2023-01-15T05:54:33;3.45;;;0.52;;
46755;SDS011;32506;52.826;-1.192;2023-01-15T05:57:00;4.43;;;0.90;;
46755;SDS011;32506;52.826;-1.192;2023-01-15T05:59:27;4.65;;;0.50;;
46755;SDS011;32506;52.826;-1.192;2023-01-15T06:01:53;5.22;;;1.10;;
46755;SDS011;32506;52.826;-1.192;2023-01-15T06:04:19;3.60;;;1.05;;
46755;SDS011;32506;52.826;-1.192;2023-01-15T06:06:46;4.25;;;0.60;;
46755;SDS011;32506;52.826;-1.192;2023-01-15T06:09:13;4.35;;;0.60;;
46755;SDS011;32506;52.826;-1.192;2023-01-15T06:11:39;4.25;;;0.70;;
46755;SDS011;32506;52.826;-1.192;2023-01-15T06:14:05;5.30;;;0.65;;
46755;SDS011;32506;52.826;-1.192;2023-01-15T06:16:31;4.22;;;0.50;;
46755;SDS011;32506;52.826;-1.192;2023-01-15T06:19:01;5.00;;;0.68;;
46755;SDS011;32506;52.826;-1.192;2023-01-15T06:21:28;5.57;;;0.88;;
46755;SDS011;32506;52.826;-1.192;2023-01-15T06:23:55;5.55;;;0.70;;
46755;SDS011;32506;52.826;-1.192;2023-01-15T06:26:20;1.70;;;0.43;;
46755;SDS011;32506;52.826;-1.192;2023-01-15T06:28:47;5.43;;;0.65;;
46755;SDS011;32506;52.826;-1.192;2023-01-15T06:31:17;5.63;;;0.68;;
46755;SDS011;32506;52.826;-1.192;2023-01-15T06:33:44;4.07;;;0.65;;
46755;SDS011;32506;52.826;-1.192;2023-01-15T06:36:13;7.68;;;0.90;;
46755;SDS011;32506;52.826;-1.192;2023-01-15T06:38:41;2.43;;;0.47;;
46755;SDS011;32506;52.826;-1.192;2023-01-15T06:41:18;7.90;;;0.98;;
46755;SDS011;32506;52.826;-1.192;2023-01-15T06:44:07;5.75;;;1.02;;
46755;SDS011;32506;52.826;-1.192;2023-01-15T06:46:55;4.90;;;0.90;;
46755;SDS011;32506;52.826;-1.192;2023-01-15T06:49:39;2.95;;;0.82;;
46755;SDS011;32506;52.826;-1.192;2023-01-15T06:52:04;4.68;;;0.77;;
46755;SDS011;32506;52.826;-1.192;2023-01-15T06:54:32;6.55;;;0.88;;
46755;SDS011;32506;52.826;-1.192;2023-01-15T06:56:58;4.57;;;0.75;;
46755;SDS011;32506;52.826;-1.192;2023-01-15T06:59:23;7.45;;;1.13;;
46755;SDS011;32506;52.826;-1.192;2023-01-15T07:01:49;4.65;;;1.67;;
46755;SDS011;32506;52.826;-1.192;2023-01-15T07:04:14;3.28;;;1.25;;
46755;SDS011;32506;52.826;-1.192;2023-01-15T07:06:40;4.70;;;0.80;;
46755;SDS011;32506;52.826;-1.192;2023-01-15T07:09:06;7.90;;;1.02;;
46755;SDS011;32506;52.826;-1.192;2023-01-15T07:11:32;3.28;;;0.52;;
46755;SDS011;32506;52.826;-1.192;2023-01-15T07:13:58;9.07;;;0.88;;
46755;SDS011;32506;52.826;-1.192;2023-01-15T07:16:32;3.50;;;0.75;;
46755;SDS011;32506;52.826;-1.192;2023-01-15T07:19:02;5.28;;;1.15;;
46755;SDS011;32506;52.826;-1.192;2023-01-15T07:21:28;5.15;;;0.73;;
46755;SDS011;32506;52.826;-1.192;2023-01-15T07:23:57;5.50;;;0.73;;
46755;SDS011;32506;52.826;-1.192;2023-01-15T07:26:24;4.38;;;0.75;;
46755;SDS011;32506;52.826;-1.192;2023-01-15T07:28:50;6.07;;;1.17;;
46755;SDS011;32506;52.826;-1.192;2023-01-15T07:31:15;6.35;;;1.33;;
46755;SDS011;32506;52.826;-1.192;2023-01-15T07:33:41;3.78;;;0.80;;
46755;SDS011;32506;52.826;-1.192;2023-01-15T07:36:07;5.03;;;1.00;;
46755;SDS011;32506;52.826;-1.192;2023-01-15T07:38:33;7.32;;;1.38;;
46755;SDS011;32506;52.826;-1.192;2023-01-15T07:40:59;2.33;;;0.65;;
46755;SDS011;32506;52.826;-1.192;2023-01-15T07:43:43;5.32;;;1.48;;
46755;SDS011;32506;52.826;-1.192;2023-01-15T07:46:27;3.17;;;0.90;;
46755;SDS011;32506;52.826;-1.192;2023-01-15T07:49:12;3.50;;;0.65;;
46755;SDS011;32506;52.826;-1.192;2023-01-15T07:51:56;6.30;;;1.15;;
46755;SDS011;32506;52.826;-1.192;2023-01-15T07:54:22;5.00;;;0.82;;
46755;SDS011;32506;52.826;-1.192;2023-01-15T07:56:48;6.55;;;0.65;;
46755;SDS011;32506;52.826;-1.192;2023-01-15T07:59:15;5.38;;;0.70;;
46755;SDS011;32506;52.826;-1.192;2023-01-15T08:01:41;5.07;;;1.05;;
46755;SDS011;32506;52.826;-1.192;2023-01-15T08:04:06;8.20;;;1.40;;
46755;SDS011;32506;52.826;-1.192;2023-01-15T08:06:33;7.13;;;0.90;;
46755;SDS011;32506;52.826;-1.192;2023-01-15T08:08:59;3.75;;;0.70;;
46755;SDS011;32506;52.826;-1.192;2023-01-15T08:11:25;4.00;;;1.13;;
46755;SDS011;32506;52.826;-1.192;2023-01-15T08:14:09;6.22;;;0.80;;
46755;SDS011;32506;52.826;-1.192;2023-01-15T08:16:53;4.10;;;0.75;;
46755;SDS011;32506;52.826;-1.192;2023-01-15T08:19:19;5.05;;;2.08;;
46755;SDS011;32506;52.826;-1.192;2023-01-15T08:21:44;2.83;;;0.85;;
46755;SDS011;32506;52.826;-1.192;2023-01-15T08:24:10;4.60;;;0.82;;
46755;SDS011;32506;52.826;-1.192;2023-01-15T08:26:35;5.80;;;0.77;;
46755;SDS011;32506;52.826;-1.192;2023-01-15T08:29:01;3.88;;;0.60;;
46755;SDS011;32506;52.826;-1.192;2023-01-15T08:31:27;4.95;;;1.05;;
46755;SDS011;32506;52.826;-1.192;2023-01-15T08:33:52;4.88;;;0.85;;
46755;SDS011;32506;52.826;-1.192;2023-01-15T08:36:18;4.88;;;0.60;;
46755;SDS011;32506;52.826;-1.192;2023-01-15T08:38:44;7.75;;;0.73;;
46755;SDS011;32506;52.826;-1.192;2023-01-15T08:41:10;4.63;;;0.90;;
46755;SDS011;32506;52.826;-1.192;2023-01-15T08:43:36;5.45;;;1.00;;
46755;SDS011;32506;52.826;-1.192;2023-01-15T08:46:03;3.55;;;0.75;;
46755;SDS011;32506;52.826;-1.192;2023-01-15T08:48:30;4.32;;;0.80;;
46755;SDS011;32506;52.826;-1.192;2023-01-15T08:51:02;3.85;;;1.13;;
46755;SDS011;32506;52.826;-1.192;2023-01-15T08:53:29;5.90;;;0.63;;
46755;SDS011;32506;52.826;-1.192;2023-01-15T08:55:54;4.07;;;0.75;;
46755;SDS011;32506;52.826;-1.192;2023-01-15T08:58:20;6.32;;;0.82;;
46755;SDS011;32506;52.826;-1.192;2023-01-15T09:00:46;4.70;;;0.70;;
46755;SDS011;32506;52.826;-1.192;2023-01-15T09:03:20;4.13;;;1.00;;
46755;SDS011;32506;52.826;-1.192;2023-01-15T09:05:58;5.65;;;0.93;;
46755;SDS011;32506;52.826;-1.192;2023-01-15T09:08:25;5.85;;;1.13;;
46755;SDS011;32506;52.826;-1.192;2023-01-15T09:10:55;3.90;;;0.60;;
46755;SDS011;32506;52.826;-1.192;2023-01-15T09:13:26;7.20;;;1.77;;
46755;SDS011;32506;52.826;-1.192;2023-01-15T09:15:52;10.10;;;2.45;;
46755;SDS011;32506;52.826;-1.192;2023-01-15T09:18:27;6.05;;;0.90;;
46755;SDS011;32506;52.826;-1.192;2023-01-15T09:20:53;7.07;;;1.20;;
46755;SDS011;32506;52.826;-1.192;2023-01-15T09:23:18;4.63;;;0.85;;
46755;SDS011;32506;52.826;-1.192;2023-01-15T09:25:58;4.25;;;0.63;;
46755;SDS011;32506;52.826;-1.192;2023-01-15T09:28:26;4.95;;;1.33;;
46755;SDS011;32506;52.826;-1.192;2023-01-15T09:30:52;4.28;;;0.90;;
46755;SDS011;32506;52.826;-1.192;2023-01-15T09:33:18;4.63;;;0.68;;
46755;SDS011;32506;52.826;-1.192;2023-01-15T09:35:44;6.72;;;0.90;;
46755;SDS011;32506;52.826;-1.192;2023-01-15T09:38:13;4.00;;;0.73;;
46755;SDS011;32506;52.826;-1.192;2023-01-15T09:46:10;6.20;;;0.88;;
46755;SDS011;32506;52.826;-1.192;2023-01-15T09:56:55;4.80;;;1.00;;
46755;SDS011;32506;52.826;-1.192;2023-01-15T10:01:50;2.85;;;0.57;;
46755;SDS011;32506;52.826;-1.192;2023-01-15T10:04:35;3.55;;;0.57;;
46755;SDS011;32506;52.826;-1.192;2023-01-15T10:07:08;3.15;;;0.73;;
46755;SDS011;32506;52.826;-1.192;2023-01-15T10:09:42;4.38;;;0.73;;
46755;SDS011;32506;52.826;-1.192;2023-01-15T10:12:22;5.90;;;0.65;;
46755;SDS011;32506;52.826;-1.192;2023-01-15T10:17:41;4.88;;;0.90;;
46755;SDS011;32506;52.826;-1.192;2023-01-15T10:20:15;3.65;;;0.70;;
46755;SDS011;32506;52.826;-1.192;2023-01-15T10:22:55;2.63;;;0.55;;
46755;SDS011;32506;52.826;-1.192;2023-01-15T10:25:30;2.95;;;0.55;;
46755;SDS011;32506;52.826;-1.192;2023-01-15T10:28:04;6.38;;;0.80;;
46755;SDS011;32506;52.826;-1.192;2023-01-15T10:30:42;3.95;;;1.02;;
46755;SDS011;32506;52.826;-1.192;2023-01-15T10:33:17;5.95;;;1.08;;
46755;SDS011;32506;52.826;-1.192;2023-01-15T10:35:57;2.95;;;0.70;;
46755;SDS011;32506;52.826;-1.192;2023-01-15T10:44:31;6.32;;;0.75;;
46755;SDS011;32506;52.826;-1.192;2023-01-15T10:47:10;4.03;;;0.73;;
46755;SDS011;32506;52.826;-1.192;2023-01-15T10:52:07;4.55;;;0.80;;
46755;SDS011;32506;52.826;-1.192;2023-01-15T10:55:37;3.83;;;1.25;;
46755;SDS011;32506;52.826;-1.192;2023-01-15T11:00:19;3.47;;;0.68;;
46755;SDS011;32506;52.826;-1.192;2023-01-15T11:02:51;5.30;;;0.90;;
46755;SDS011;32506;52.826;-1.192;2023-01-15T11:05:35;5.97;;;0.90;;
46755;SDS011;32506;52.826;-1.192;2023-01-15T11:08:04;7.45;;;1.27;;
46755;SDS011;32506;52.826;-1.192;2023-01-15T11:10:35;5.75;;;0.70;;
46755;SDS011;32506;52.826;-1.192;2023-01-15T11:16:13;6.28;;;1.45;;
46755;SDS011;32506;52.826;-1.192;2023-01-15T11:19:03;6.28;;;1.20;;
46755;SDS011;32506;52.826;-1.192;2023-01-15T11:21:50;5.55;;;0.80;;
46755;SDS011;32506;52.826;-1.192;2023-01-15T11:24:17;6.47;;;0.82;;
46755;SDS011;32506;52.826;-1.192;2023-01-15T11:26:50;3.85;;;0.80;;
46755;SDS011;32506;52.826;-1.192;2023-01-15T11:29:39;3.67;;;1.10;;
46755;SDS011;32506;52.826;-1.192;2023-01-15T11:32:15;3.58;;;0.63;;
46755;SDS011;32506;52.826;-1.192;2023-01-15T11:34:51;5.03;;;0.73;;
46755;SDS011;32506;52.826;-1.192;2023-01-15T11:37:20;4.68;;;1.00;;
46755;SDS011;32506;52.826;-1.192;2023-01-15T11:40:02;7.93;;;1.00;;
46755;SDS011;32506;52.826;-1.192;2023-01-15T11:42:32;5.32;;;0.63;;
46755;SDS011;32506;52.826;-1.192;2023-01-15T11:45:20;2.90;;;0.70;;
46755;SDS011;32506;52.826;-1.192;2023-01-15T11:48:15;3.15;;;1.00;;
46755;SDS011;32506;52.826;-1.192;2023-01-15T11:51:11;3.15;;;1.00;;
46755;SDS011;32506;52.826;-1.192;2023-01-15T11:56:17;2.85;;;0.52;;
46755;SDS011;32506;52.826;-1.192;2023-01-15T11:58:51;6.18;;;0.90;;
46755;SDS011;32506;52.826;-1.192;2023-01-15T12:03:52;7.50;;;1.08;;
46755;SDS011;32506;52.826;-1.192;2023-01-15T12:06:19;5.20;;;0.73;;
46755;SDS011;32506;52.826;-1.192;2023-01-15T12:08:51;9.88;;;1.05;;
46755;SDS011;32506;52.826;-1.192;2023-01-15T12:11:30;5.18;;;1.10;;
46755;SDS011;32506;52.826;-1.192;2023-01-15T12:14:06;7.53;;;1.17;;
46755;SDS011;32506;52.826;-1.192;2023-01-15T12:25:37;4.07;;;1.25;;
46755;SDS011;32506;52.826;-1.192;2023-01-15T12:33:35;4.90;;;0.98;;
46755;SDS011;32506;52.826;-1.192;2023-01-15T12:36:18;7.85;;;1.02;;
46755;SDS011;32506;52.826;-1.192;2023-01-15T12:38:49;5.97;;;1.20;;
46755;SDS011;32506;52.826;-1.192;2023-01-15T12:41:33;5.50;;;1.45;;
46755;SDS011;32506;52.826;-1.192;2023-01-15T12:45:05;5.53;;;1.02;;
46755;SDS011;32506;52.826;-1.192;2023-01-15T12:47:28;4.88;;;1.48;;
46755;SDS011;32506;52.826;-1.192;2023-01-15T12:50:21;4.57;;;1.63;;
46755;SDS011;32506;52.826;-1.192;2023-01-15T12:58:37;6.43;;;1.60;;
46755;SDS011;32506;52.826;-1.192;2023-01-15T13:01:55;6.05;;;2.50;;
46755;SDS011;32506;52.826;-1.192;2023-01-15T13:04:15;7.00;;;1.40;;
46755;SDS011;32506;52.826;-1.192;2023-01-15T13:06:52;2.78;;;0.95;;
46755;SDS011;32506;52.826;-1.192;2023-01-15T13:12:12;3.72;;;1.13;;
46755;SDS011;32506;52.826;-1.192;2023-01-15T13:14:39;4.65;;;1.00;;
46755;SDS011;32506;52.826;-1.192;2023-01-15T13:17:09;7.97;;;1.70;;
46755;SDS011;32506;52.826;-1.192;2023-01-15T13:22:24;6.47;;;1.60;;
46755;SDS011;32506;52.826;-1.192;2023-01-15T13:30:18;5.32;;;1.10;;
46755;SDS011;32506;52.826;-1.192;2023-01-15T13:33:15;8.35;;;1.60;;
46755;SDS011;32506;52.826;-1.192;2023-01-15T13:35:50;7.43;;;1.58;;
46755;SDS011;32506;52.826;-1.192;2023-01-15T13:38:19;7.38;;;1.90;;
46755;SDS011;32506;52.826;-1.192;2023-01-15T13:40:48;5.32;;;1.40;;
46755;SDS011;32506;52.826;-1.192;2023-01-15T13:43:23;7.03;;;1.40;;
46755;SDS011;32506;52.826;-1.192;2023-01-15T13:45:53;7.07;;;1.63;;
46755;SDS011;32506;52.826;-1.192;2023-01-15T13:51:17;5.93;;;1.90;;
46755;SDS011;32506;52.826;-1.192;2023-01-15T13:53:49;5.03;;;1.55;;
46755;SDS011;32506;52.826;-1.192;2023-01-15T13:56:24;6.60;;;1.95;;
46755;SDS011;32506;52.826;-1.192;2023-01-15T13:58:58;5.18;;;1.45;;
46755;SDS011;32506;52.826;-1.192;2023-01-15T14:26:04;9.00;;;2.70;;
46755;SDS011;32506;52.826;-1.192;2023-01-15T14:28:41;7.72;;;2.60;;
46755;SDS011;32506;52.826;-1.192;2023-01-15T14:36:33;8.80;;;1.92;;
46755;SDS011;32506;52.826;-1.192;2023-01-15T14:39:03;9.63;;;1.98;;
46755;SDS011;32506;52.826;-1.192;2023-01-15T14:41:45;6.50;;;1.85;;
46755;SDS011;32506;52.826;-1.192;2023-01-15T14:44:30;7.38;;;2.08;;
46755;SDS011;32506;52.826;-1.192;2023-01-15T14:47:02;9.63;;;2.53;;
46755;SDS011;32506;52.826;-1.192;2023-01-15T14:49:40;8.85;;;2.72;;
46755;SDS011;32506;52.826;-1.192;2023-01-15T14:52:15;7.28;;;2.03;;
46755;SDS011;32506;52.826;-1.192;2023-01-15T14:54:47;5.85;;;2.00;;
46755;SDS011;32506;52.826;-1.192;2023-01-15T14:57:13;8.10;;;2.58;;
46755;SDS011;32506;52.826;-1.192;2023-01-15T14:59:45;8.00;;;2.45;;
46755;SDS011;32506;52.826;-1.192;2023-01-15T15:02:31;8.70;;;2.60;;
46755;SDS011;32506;52.826;-1.192;2023-01-15T15:05:01;6.68;;;2.55;;
46755;SDS011;32506;52.826;-1.192;2023-01-15T15:07:38;7.53;;;2.80;;
46755;SDS011;32506;52.826;-1.192;2023-01-15T15:10:30;9.68;;;2.17;;
46755;SDS011;32506;52.826;-1.192;2023-01-15T15:18:43;7.18;;;2.45;;
46755;SDS011;32506;52.826;-1.192;2023-01-15T15:21:21;6.90;;;1.95;;
46755;SDS011;32506;52.826;-1.192;2023-01-15T15:26:42;7.07;;;3.15;;
46755;SDS011;32506;52.826;-1.192;2023-01-15T15:31:35;7.78;;;2.70;;
46755;SDS011;32506;52.826;-1.192;2023-01-15T15:34:47;8.43;;;2.22;;
46755;SDS011;32506;52.826;-1.192;2023-01-15T15:37:24;6.75;;;2.85;;
46755;SDS011;32506;52.826;-1.192;2023-01-15T15:42:31;6.25;;;2.58;;
46755;SDS011;32506;52.826;-1.192;2023-01-15T15:45:26;6.65;;;2.70;;
46755;SDS011;32506;52.826;-1.192;2023-01-15T15:48:16;6.07;;;2.83;;
46755;SDS011;32506;52.826;-1.192;2023-01-15T15:51:00;6.72;;;2.85;;
46755;SDS011;32506;52.826;-1.192;2023-01-15T15:53:27;4.40;;;2.25;;
46755;SDS011;32506;52.826;-1.192;2023-01-15T15:55:53;6.15;;;2.75;;
46755;SDS011;32506;52.826;-1.192;2023-01-15T16:00:59;7.22;;;3.08;;
46755;SDS011;32506;52.826;-1.192;2023-01-15T16:03:26;7.57;;;3.08;;
46755;SDS011;32506;52.826;-1.192;2023-01-15T16:05:58;7.53;;;3.55;;
46755;SDS011;32506;52.826;-1.192;2023-01-15T16:08:24;8.02;;;3.22;;
46755;SDS011;32506;52.826;-1.192;2023-01-15T16:10:55;7.13;;;3.45;;
46755;SDS011;32506;52.826;-1.192;2023-01-15T16:13:31;6.88;;;3.28;;
46755;SDS011;32506;52.826;-1.192;2023-01-15T16:16:01;5.60;;;3.30;;
46755;SDS011;32506;52.826;-1.192;2023-01-15T16:18:42;7.82;;;2.85;;
46755;SDS011;32506;52.826;-1.192;2023-01-15T16:21:23;7.63;;;3.55;;
46755;SDS011;32506;52.826;-1.192;2023-01-15T16:26:36;6.00;;;2.42;;
46755;SDS011;32506;52.826;-1.192;2023-01-15T16:29:05;4.38;;;2.55;;
46755;SDS011;32506;52.826;-1.192;2023-01-15T16:31:44;6.45;;;2.38;;
46755;SDS011;32506;52.826;-1.192;2023-01-15T16:34:11;6.20;;;2.40;;
46755;SDS011;32506;52.826;-1.192;2023-01-15T16:36:43;5.15;;;2.38;;
46755;SDS011;32506;52.826;-1.192;2023-01-15T16:41:48;6.57;;;2.40;;
46755;SDS011;32506;52.826;-1.192;2023-01-15T16:44:24;5.82;;;2.70;;
46755;SDS011;32506;52.826;-1.192;2023-01-15T16:46:54;7.28;;;2.45;;
46755;SDS011;32506;52.826;-1.192;2023-01-15T16:49:27;8.35;;;2.50;;
46755;SDS011;32506;52.826;-1.192;2023-01-15T16:51:56;6.28;;;2.30;;
46755;SDS011;32506;52.826;-1.192;2023-01-15T16:56:54;5.05;;;2.53;;
46755;SDS011;32506;52.826;-1.192;2023-01-15T17:01:54;7.15;;;2.40;;
46755;SDS011;32506;52.826;-1.192;2023-01-15T17:04:28;4.03;;;2.40;;
46755;SDS011;32506;52.826;-1.192;2023-01-15T17:06:59;3.97;;;1.80;;
46755;SDS011;32506;52.826;-1.192;2023-01-15T17:09:34;4.80;;;1.90;;
46755;SDS011;32506;52.826;-1.192;2023-01-15T17:12:05;3.70;;;1.77;;
46755;SDS011;32506;52.826;-1.192;2023-01-15T17:14:39;5.18;;;1.75;;
46755;SDS011;32506;52.826;-1.192;2023-01-15T17:19:46;3.95;;;1.80;;
46755;SDS011;32506;52.826;-1.192;2023-01-15T17:22:13;5.85;;;1.73;;
46755;SDS011;32506;52.826;-1.192;2023-01-15T17:24:47;3.75;;;1.60;;
46755;SDS011;32506;52.826;-1.192;2023-01-15T17:27:13;5.00;;;1.85;;
46755;SDS011;32506;52.826;-1.192;2023-01-15T17:29:39;3.95;;;1.65;;